»·PEaware :: N904CP KSAN-L72

N904CP :: KSAN-L72

FLIGHT INFORMATION

Flight Status: Arrived
Operator: Privately registered:
United States
More flights under this callsign
Pilot: Joseph G. (11198)
Aircraft: CESSNA 208 CARAVAN
(C208)
More flights by this aircraft type
Origin: KSAN San Diego Intl-Lindbergh
United States
Destination: L72 Trona
United States
More flights between these airports :: More routes between these airports
Route: +OCN V23 DANAH V363 POM V197 JERID L72
File this flight plan on PilotEdge
Remarks:
Altitude:
(Current/Filed)
9,500ft
Speed:
(Current/Filed)
165kts
Departed: 11-Oct-18 05:49 PM
Arrived: 11-Oct-18 07:14 PM
Distance/Time
Traveled:
185nm/1:24
Distance/Time
To Go:
Arrived

Flight Plot

Page will automatically refresh every two minutes.

Flight plan parsing failed; only flown route is shown


Map Options




Map Legend


Flown Route
Filed Route
Departure Airport
Arrival Airport
Navaid (VOR, NDB)
Fix

Horizontal Profiles

Position Reports

Time Latitude Longitude Heading Altitude Ground
Speed
11-Oct-18 17:30 32.732421 -117.176641 194 22ft 0kts
11-Oct-18 17:31 32.732351 -117.176666 197 22ft 0kts
11-Oct-18 17:32 32.732349 -117.176666 195 22ft 0kts
11-Oct-18 17:33 32.732349 -117.176666 195 22ft 0kts
11-Oct-18 17:34 32.732349 -117.176666 195 22ft 0kts
11-Oct-18 17:35 32.732349 -117.176666 195 22ft 0kts
11-Oct-18 17:36 32.732349 -117.176666 195 22ft 0kts
11-Oct-18 17:37 32.732349 -117.176666 195 22ft 0kts
11-Oct-18 17:38 32.732349 -117.176666 195 22ft 0kts
11-Oct-18 17:39 32.732349 -117.176666 195 22ft 0kts
11-Oct-18 17:40 32.732349 -117.176666 195 22ft 0kts
11-Oct-18 17:41 32.732349 -117.176666 195 22ft 0kts
11-Oct-18 17:42 32.732349 -117.176666 195 22ft 0kts
11-Oct-18 17:43 32.732349 -117.176666 195 22ft 0kts
11-Oct-18 17:44 32.732349 -117.176666 195 22ft 0kts
11-Oct-18 17:45 32.732349 -117.176666 195 22ft 0kts
11-Oct-18 17:46 32.732349 -117.176666 195 22ft 0kts
11-Oct-18 17:47 32.732349 -117.176666 195 22ft 0kts
11-Oct-18 17:48 32.732300 -117.176678 186 22ft 3kts
11-Oct-18 17:49 32.731184 -117.175657 143 23ft 0kts
11-Oct-18 17:50 32.731000 -117.175506 146 23ft 8kts
11-Oct-18 17:51 32.733594 -117.189986 290 212ft 121kts
11-Oct-18 17:52 32.758239 -117.217070 319 896ft 144kts
11-Oct-18 17:53 32.784271 -117.241645 320 1467ft 148kts
11-Oct-18 17:54 32.822199 -117.277511 320 2008ft 158kts
11-Oct-18 17:55 32.851054 -117.304939 320 2008ft 162kts
11-Oct-18 17:56 32.886411 -117.338383 321 2099ft 158kts
11-Oct-18 17:57 32.926945 -117.341803 347 3074ft 145kts
11-Oct-18 17:58 32.965416 -117.350514 345 4055ft 141kts
11-Oct-18 17:59 33.003415 -117.359703 345 5042ft 141kts
11-Oct-18 18:00 33.041931 -117.369136 345 6041ft 146kts
11-Oct-18 18:01 33.082458 -117.379032 345 7042ft 150kts
11-Oct-18 18:02 33.116228 -117.387293 345 7864ft 150kts
11-Oct-18 18:03 33.155349 -117.396888 345 8818ft 149kts
11-Oct-18 18:04 33.194216 -117.406443 345 9773ft 148kts
11-Oct-18 18:05 33.242592 -117.421408 317 10004ft 170kts
11-Oct-18 18:06 33.271387 -117.453777 314 9995ft 173kts
11-Oct-18 18:07 33.305919 -117.493861 314 10000ft 175kts
11-Oct-18 18:08 33.340381 -117.534023 314 9997ft 175kts
11-Oct-18 18:09 33.374973 -117.574419 315 10008ft 175kts
11-Oct-18 18:10 33.409357 -117.614633 314 10009ft 176kts
11-Oct-18 18:11 33.440712 -117.651335 314 10011ft 176kts
11-Oct-18 18:12 33.473704 -117.690008 314 10008ft 176kts
11-Oct-18 18:13 33.526876 -117.706040 351 10009ft 177kts
11-Oct-18 18:14 33.566128 -117.712687 351 10009ft 177kts
11-Oct-18 18:15 33.612536 -117.720512 351 10009ft 177kts
11-Oct-18 18:16 33.655238 -117.727718 351 10010ft 178kts
11-Oct-18 18:17 33.697735 -117.741364 338 10009ft 177kts
11-Oct-18 18:18 33.734233 -117.758603 338 10014ft 176kts
11-Oct-18 18:19 33.770361 -117.775653 338 10008ft 176kts
11-Oct-18 18:20 33.807514 -117.781683 359 10011ft 176kts
11-Oct-18 18:21 33.844893 -117.782343 359 10009ft 176kts
11-Oct-18 18:22 33.882278 -117.783080 359 10008ft 176kts
11-Oct-18 18:23 33.916574 -117.783823 359 10009ft 176kts
11-Oct-18 18:24 33.950025 -117.784535 359 10009ft 176kts
11-Oct-18 18:25 33.981618 -117.785210 359 10019ft 176kts
11-Oct-18 18:26 34.013274 -117.785886 359 10022ft 176kts
11-Oct-18 18:27 34.048500 -117.786615 359 10019ft 176kts
11-Oct-18 18:28 34.089462 -117.792680 337 10017ft 176kts
11-Oct-18 18:29 34.128682 -117.812319 337 10016ft 176kts
11-Oct-18 18:30 34.171015 -117.833439 337 10017ft 176kts
11-Oct-18 18:31 34.213429 -117.854590 336 10021ft 177kts
11-Oct-18 18:32 34.256871 -117.876296 337 10015ft 177kts
11-Oct-18 18:33 34.301886 -117.898813 338 10013ft 181kts
11-Oct-18 18:34 34.346692 -117.921199 339 10016ft 181kts
11-Oct-18 18:35 34.393097 -117.944446 338 10036ft 181kts
11-Oct-18 18:36 34.439480 -117.967706 338 10045ft 181kts
11-Oct-18 18:37 34.485507 -117.990818 338 10045ft 181kts
11-Oct-18 18:38 34.530570 -118.013472 338 10000ft 182kts
11-Oct-18 18:39 34.575861 -118.036268 338 10000ft 181kts
11-Oct-18 18:40 34.620631 -118.058830 338 10000ft 181kts
11-Oct-18 18:41 34.656454 -118.096828 313 10000ft 182kts
11-Oct-18 18:42 34.686935 -118.136630 313 10000ft 182kts
11-Oct-18 18:43 34.720942 -118.180924 313 9992ft 183kts
11-Oct-18 18:44 34.755989 -118.226612 313 9991ft 190kts
11-Oct-18 18:45 34.797854 -118.281312 315 9991ft 189kts
11-Oct-18 18:46 34.827595 -118.320131 315 9991ft 187kts
11-Oct-18 18:47 34.862958 -118.365709 327 10064ft 183kts
11-Oct-18 18:48 34.904159 -118.343483 42 10073ft 175kts
11-Oct-18 18:49 34.940786 -118.303993 43 9991ft 174kts
11-Oct-18 18:50 34.976333 -118.264893 44 10009ft 174kts
11-Oct-18 18:51 35.011842 -118.225399 44 10009ft 175kts
11-Oct-18 18:52 35.047868 -118.185357 44 10010ft 175kts
11-Oct-18 18:53 35.083918 -118.145405 44 10008ft 175kts
11-Oct-18 18:54 35.115706 -118.110150 43 10009ft 175kts
11-Oct-18 18:55 35.151752 -118.070131 43 10009ft 175kts
11-Oct-18 18:56 35.187832 -118.030026 43 10009ft 175kts
11-Oct-18 18:57 35.223911 -117.989872 43 10009ft 175kts
11-Oct-18 18:58 35.259831 -117.949830 43 10009ft 175kts
11-Oct-18 18:59 35.295692 -117.909805 42 10009ft 173kts
11-Oct-18 19:00 35.331269 -117.870086 42 10009ft 173kts
11-Oct-18 19:01 35.366845 -117.830296 42 10000ft 173kts
11-Oct-18 19:02 35.402459 -117.790411 42 9999ft 173kts
11-Oct-18 19:03 35.432800 -117.756461 44 9999ft 171kts
11-Oct-18 19:04 35.463552 -117.721854 45 9999ft 169kts
11-Oct-18 19:05 35.498162 -117.682842 45 9998ft 169kts
11-Oct-18 19:06 35.532904 -117.643744 45 9998ft 169kts
11-Oct-18 19:07 35.564050 -117.600760 51 9998ft 168kts
11-Oct-18 19:08 35.593909 -117.556689 60 9997ft 167kts
11-Oct-18 19:09 35.617738 -117.505617 61 9041ft 173kts
11-Oct-18 19:10 35.641747 -117.454046 61 8051ft 173kts
11-Oct-18 19:11 35.675585 -117.418872 32 8007ft 162kts
11-Oct-18 19:12 35.714175 -117.393286 32 7061ft 161kts
11-Oct-18 19:13 35.751890 -117.366711 49 5116ft 142kts
11-Oct-18 19:14 35.770683 -117.340298 29 3969ft 98kts
11-Oct-18 19:15 35.795331 -117.330438 7 2001ft 91kts
11-Oct-18 19:16 35.809897 -117.327492 9 1672ft 26kts
11-Oct-18 19:17 35.812401 -117.328687 342 1679ft 0kts
11-Oct-18 19:18 35.812401 -117.328687 342 1679ft 0kts

Navigation Log

Ident Type
Flight plan parsing failed, navigation log unavailable